Share

Galt, IA (50101)

Clarion Municipal (KCAV) Elev 1161 ft | 42.74 °N, 93.76 °W | Change Station

Current weather conditions updated 8 minutes ago

Clear
Clear
34 °F
Feels Like 28 °F
N
7
Wind Variable Wind from ENE
Sunrise 6:29 AM
Sunset 7:58 PM
Moon Waning Gibbous

Tomorrow is forecast to be Much Warmer than today.

Pressure 30.30 in
Visibility 10.0 miles
Clouds Clear
Windchill 28 °F
Dew Point 30 °F
Humidity 87%
Rainfall 0.00 in
Snow Depth Not available.
UV 0 out of 16
Pollen 9.70 out of 12
Air Quality Not available.
Flu Activity Sporadic
METAR KCAV 180315Z AUTO 07006KT 10SM CLR 01/M01 A3030 RMK AO2

More Conditions Fewer Conditions

Pressure 30.30 in
Visibility 10.0 miles
Clouds Clear
Windchill 28 °F
Dew Point 30 °F
Humidity 87%
Rainfall 0.00 in
Snow Depth Not available.
UV 0 out of 16
Pollen 9.70 out of 12
Air Quality Not available.
Flu Activity Sporadic
METAR KCAV 180315Z AUTO 07006KT 10SM CLR 01/M01 A3030 RMK AO2

More Conditions Fewer Conditions

10-Day Forecast

Almanac

Astronomy

Apr. 17, 2014 Rise Set
Actual Time 6:29 AM CDT 7:58 PM CDT
Civil Twilight 6:00 AM CDT 8:28 PM CDT
Nautical Twilight 5:24 AM CDT 9:04 PM CDT
Astronomical Twilight 4:46 AM CDT 9:42 PM CDT
Moon 10:48 PM CDT (4/17) 7:59 AM CDT (4/17)
Length of Visible Light 14h 28m
Length of Day
13h 29m
Tomorrow will be 2m 44s longer.
Waning Gibbous, 91% of the Moon is Illuminated
Today
Waning Gibbous
Apr 22
Last Quarter
Apr 29
New
May 6
First Quarter
May 14
Full

Today's Extremes

State Highs State Lows

Community

  • SUNRISE THROUGH THE TREES.
    SUNRISE THROUGH THE TREES.
  • Dog Wood Blossoms
    Dog Wood Blossoms
  • Morning Light
    Morning Light
  • New Day
    New Day
  • Lake Michigan Sunrise
    Lake Michigan Sunrise

WunderPhotos

Upload Photos

1,702,235 photos uploaded!

WunderBlogs® & News

Nearby

Snow Depth

Station Depth Elevation
No new snow has been reported.

Coastal Water Temperatures

Place Temperature
No Stations Reporting

Earthquake Activity

City Distance Mag. Time & Date
No recent earthquake activity has been reported nearby.
Minimum magnitude displayed is 2.5.

Nearby Weather Stations

Station Location Temp. Windchill Dew Point Humidity Wind Precip. Elev Updated Type
MesoWest ARGON , Bradford, IA 30 °F 30 °F - - North  at  - 0.00 in / hr 1198 ft 9:15 PM CDT MADIS
Beeds Addition, Hampton, IA 34.5 °F 34 °F 32 °F 89% NE  at  2.2 mph 0.00 in / hr 1135 ft 10:23 PM CDT Rapid Fire
Tall Grass Prairie, Klemme, IA 30.9 °F 31 °F 29 °F 94% East  at  2.2 mph 0.00 in / hr 1207 ft 10:20 PM CDT Normal
Jensen Farm, Iowa Falls, IA 33.4 °F 30 °F 31 °F 90% NNE  at  4.0 mph 0.00 in / hr 1142 ft 10:23 PM CDT Rapid Fire

Show More Stations Show Fewer Stations

What do you think?

We're not finished. Please let us know what you like, what you don't like, and what you are still missing.